sensor_id;sensor_type;location;lat;lon;timestamp;temperature;humidity
27534;DHT22;14973;51.460;7.008;2022-08-21T00:02:12;18.40;99.90
27534;DHT22;14973;51.460;7.008;2022-08-21T00:04:38;18.30;99.90
27534;DHT22;14973;51.460;7.008;2022-08-21T00:07:03;18.30;99.90
27534;DHT22;14973;51.460;7.008;2022-08-21T00:09:29;18.20;99.90
27534;DHT22;14973;51.460;7.008;2022-08-21T00:11:55;18.30;99.90
27534;DHT22;14973;51.460;7.008;2022-08-21T00:14:20;18.20;99.90
27534;DHT22;14973;51.460;7.008;2022-08-21T00:16:46;18.10;99.90
27534;DHT22;14973;51.460;7.008;2022-08-21T00:19:11;18.10;99.90
27534;DHT22;14973;51.460;7.008;2022-08-21T00:21:37;18.00;99.90
27534;DHT22;14973;51.460;7.008;2022-08-21T00:24:03;17.90;99.90
27534;DHT22;14973;51.460;7.008;2022-08-21T00:26:28;17.90;99.90
27534;DHT22;14973;51.460;7.008;2022-08-21T00:28:54;17.80;99.90
27534;DHT22;14973;51.460;7.008;2022-08-21T00:31:19;17.70;99.90
27534;DHT22;14973;51.460;7.008;2022-08-21T00:33:45;17.70;99.90
27534;DHT22;14973;51.460;7.008;2022-08-21T00:36:10;17.70;99.90
27534;DHT22;14973;51.460;7.008;2022-08-21T00:38:36;17.70;99.90
27534;DHT22;14973;51.460;7.008;2022-08-21T00:41:03;17.70;99.90
27534;DHT22;14973;51.460;7.008;2022-08-21T00:43:30;17.70;99.90
27534;DHT22;14973;51.460;7.008;2022-08-21T00:45:56;17.70;99.90
27534;DHT22;14973;51.460;7.008;2022-08-21T00:48:22;17.70;99.90
27534;DHT22;14973;51.460;7.008;2022-08-21T00:50:49;17.70;99.90
27534;DHT22;14973;51.460;7.008;2022-08-21T00:53:15;17.70;99.90
27534;DHT22;14973;51.460;7.008;2022-08-21T00:55:41;17.70;99.90
27534;DHT22;14973;51.460;7.008;2022-08-21T00:58:08;17.80;99.90
27534;DHT22;14973;51.460;7.008;2022-08-21T01:00:37;17.80;99.90
27534;DHT22;14973;51.460;7.008;2022-08-21T01:03:06;17.80;99.90
27534;DHT22;14973;51.460;7.008;2022-08-21T01:05:32;17.80;99.90
27534;DHT22;14973;51.460;7.008;2022-08-21T01:07:58;17.80;99.90
27534;DHT22;14973;51.460;7.008;2022-08-21T01:10:23;17.80;99.90
27534;DHT22;14973;51.460;7.008;2022-08-21T01:12:49;17.80;99.90
27534;DHT22;14973;51.460;7.008;2022-08-21T01:15:16;17.70;99.90
27534;DHT22;14973;51.460;7.008;2022-08-21T01:17:42;17.80;99.90
27534;DHT22;14973;51.460;7.008;2022-08-21T01:20:08;17.70;99.90
27534;DHT22;14973;51.460;7.008;2022-08-21T01:22:34;17.70;99.90
27534;DHT22;14973;51.460;7.008;2022-08-21T01:25:02;17.70;99.90
27534;DHT22;14973;51.460;7.008;2022-08-21T01:27:28;17.70;99.90
27534;DHT22;14973;51.460;7.008;2022-08-21T01:29:58;17.60;99.90
27534;DHT22;14973;51.460;7.008;2022-08-21T01:32:24;17.50;99.90
27534;DHT22;14973;51.460;7.008;2022-08-21T01:34:51;17.40;99.90
27534;DHT22;14973;51.460;7.008;2022-08-21T01:37:17;17.40;99.90
27534;DHT22;14973;51.460;7.008;2022-08-21T01:39:44;17.40;99.90
27534;DHT22;14973;51.460;7.008;2022-08-21T01:42:10;17.30;99.90
27534;DHT22;14973;51.460;7.008;2022-08-21T01:44:35;17.30;99.90
27534;DHT22;14973;51.460;7.008;2022-08-21T01:47:02;17.30;99.90
27534;DHT22;14973;51.460;7.008;2022-08-21T01:49:28;17.20;99.90
27534;DHT22;14973;51.460;7.008;2022-08-21T01:51:54;17.10;99.90
27534;DHT22;14973;51.460;7.008;2022-08-21T01:54:19;17.10;99.90
27534;DHT22;14973;51.460;7.008;2022-08-21T01:56:47;17.10;99.90
27534;DHT22;14973;51.460;7.008;2022-08-21T01:59:12;17.10;99.90
27534;DHT22;14973;51.460;7.008;2022-08-21T02:01:38;17.00;99.90
27534;DHT22;14973;51.460;7.008;2022-08-21T02:04:07;17.10;99.90
27534;DHT22;14973;51.460;7.008;2022-08-21T02:06:33;16.90;99.90
27534;DHT22;14973;51.460;7.008;2022-08-21T02:08:58;16.80;99.90
27534;DHT22;14973;51.460;7.008;2022-08-21T02:11:24;16.80;99.90
27534;DHT22;14973;51.460;7.008;2022-08-21T02:13:49;16.70;99.90
27534;DHT22;14973;51.460;7.008;2022-08-21T02:16:15;16.70;99.90
27534;DHT22;14973;51.460;7.008;2022-08-21T02:18:40;16.60;99.90
27534;DHT22;14973;51.460;7.008;2022-08-21T02:21:06;16.60;99.90
27534;DHT22;14973;51.460;7.008;2022-08-21T02:23:32;16.50;99.90
27534;DHT22;14973;51.460;7.008;2022-08-21T02:25:58;16.40;99.90
27534;DHT22;14973;51.460;7.008;2022-08-21T02:28:24;16.30;99.90
27534;DHT22;14973;51.460;7.008;2022-08-21T02:30:50;16.40;99.90
27534;DHT22;14973;51.460;7.008;2022-08-21T02:33:17;16.40;99.90
27534;DHT22;14973;51.460;7.008;2022-08-21T02:35:43;16.40;99.90
27534;DHT22;14973;51.460;7.008;2022-08-21T02:38:11;16.30;99.90
27534;DHT22;14973;51.460;7.008;2022-08-21T02:40:38;16.20;99.90
27534;DHT22;14973;51.460;7.008;2022-08-21T02:43:04;16.30;99.90
27534;DHT22;14973;51.460;7.008;2022-08-21T02:45:30;16.20;99.90
27534;DHT22;14973;51.460;7.008;2022-08-21T02:47:56;16.20;99.90
27534;DHT22;14973;51.460;7.008;2022-08-21T02:50:27;16.20;99.90
27534;DHT22;14973;51.460;7.008;2022-08-21T02:52:52;16.20;99.90
27534;DHT22;14973;51.460;7.008;2022-08-21T02:55:22;16.20;99.90
27534;DHT22;14973;51.460;7.008;2022-08-21T02:57:48;16.30;99.90
27534;DHT22;14973;51.460;7.008;2022-08-21T03:00:15;16.30;99.90
27534;DHT22;14973;51.460;7.008;2022-08-21T03:02:41;16.20;99.90
27534;DHT22;14973;51.460;7.008;2022-08-21T03:05:07;16.20;99.90
27534;DHT22;14973;51.460;7.008;2022-08-21T03:07:33;16.20;99.90
27534;DHT22;14973;51.460;7.008;2022-08-21T03:09:59;16.20;99.90
27534;DHT22;14973;51.460;7.008;2022-08-21T03:12:25;16.30;99.90
27534;DHT22;14973;51.460;7.008;2022-08-21T03:14:50;16.30;99.90
27534;DHT22;14973;51.460;7.008;2022-08-21T03:17:16;16.30;99.90
27534;DHT22;14973;51.460;7.008;2022-08-21T03:19:41;16.30;99.90
27534;DHT22;14973;51.460;7.008;2022-08-21T03:22:07;16.40;99.90
27534;DHT22;14973;51.460;7.008;2022-08-21T03:24:32;16.40;99.90
27534;DHT22;14973;51.460;7.008;2022-08-21T03:26:58;16.50;99.90
27534;DHT22;14973;51.460;7.008;2022-08-21T03:29:23;16.50;99.90
27534;DHT22;14973;51.460;7.008;2022-08-21T03:31:49;16.50;99.90
27534;DHT22;14973;51.460;7.008;2022-08-21T03:34:14;16.60;99.90
27534;DHT22;14973;51.460;7.008;2022-08-21T03:36:40;16.50;99.90
27534;DHT22;14973;51.460;7.008;2022-08-21T03:39:05;16.50;99.90
27534;DHT22;14973;51.460;7.008;2022-08-21T03:41:31;16.40;99.90
27534;DHT22;14973;51.460;7.008;2022-08-21T03:43:56;16.40;99.90
27534;DHT22;14973;51.460;7.008;2022-08-21T03:46:22;16.40;99.90
27534;DHT22;14973;51.460;7.008;2022-08-21T03:48:47;16.40;99.90
27534;DHT22;14973;51.460;7.008;2022-08-21T03:51:13;16.50;99.90
27534;DHT22;14973;51.460;7.008;2022-08-21T03:53:39;16.50;99.90
27534;DHT22;14973;51.460;7.008;2022-08-21T03:56:05;16.60;99.90
27534;DHT22;14973;51.460;7.008;2022-08-21T03:58:30;16.50;99.90
27534;DHT22;14973;51.460;7.008;2022-08-21T04:00:57;16.60;99.90
27534;DHT22;14973;51.460;7.008;2022-08-21T04:03:23;16.50;99.90
27534;DHT22;14973;51.460;7.008;2022-08-21T04:05:49;16.40;99.90
27534;DHT22;14973;51.460;7.008;2022-08-21T04:08:15;16.50;99.90
27534;DHT22;14973;51.460;7.008;2022-08-21T04:10:42;16.50;99.90
27534;DHT22;14973;51.460;7.008;2022-08-21T04:13:08;16.40;99.90
27534;DHT22;14973;51.460;7.008;2022-08-21T04:15:34;16.30;99.90
27534;DHT22;14973;51.460;7.008;2022-08-21T04:18:00;16.20;99.90
27534;DHT22;14973;51.460;7.008;2022-08-21T04:20:25;16.20;99.90
27534;DHT22;14973;51.460;7.008;2022-08-21T04:22:51;16.40;99.90
27534;DHT22;14973;51.460;7.008;2022-08-21T04:25:18;16.40;99.90
27534;DHT22;14973;51.460;7.008;2022-08-21T04:27:44;16.40;99.90
27534;DHT22;14973;51.460;7.008;2022-08-21T04:30:09;16.30;99.90
27534;DHT22;14973;51.460;7.008;2022-08-21T04:32:36;16.30;99.90
27534;DHT22;14973;51.460;7.008;2022-08-21T04:35:06;16.20;99.90
27534;DHT22;14973;51.460;7.008;2022-08-21T04:37:32;16.30;99.90
27534;DHT22;14973;51.460;7.008;2022-08-21T04:39:57;16.20;99.90
27534;DHT22;14973;51.460;7.008;2022-08-21T04:42:24;16.30;99.90
27534;DHT22;14973;51.460;7.008;2022-08-21T04:44:49;16.50;99.90
27534;DHT22;14973;51.460;7.008;2022-08-21T04:47:16;16.70;99.90
27534;DHT22;14973;51.460;7.008;2022-08-21T04:49:42;17.00;99.90
27534;DHT22;14973;51.460;7.008;2022-08-21T04:52:07;17.50;99.90
27534;DHT22;14973;51.460;7.008;2022-08-21T04:54:33;18.00;99.90
27534;DHT22;14973;51.460;7.008;2022-08-21T04:57:00;18.20;99.90
27534;DHT22;14973;51.460;7.008;2022-08-21T04:59:33;18.20;99.90
27534;DHT22;14973;51.460;7.008;2022-08-21T05:02:00;18.20;99.90
27534;DHT22;14973;51.460;7.008;2022-08-21T05:04:28;18.10;99.90
27534;DHT22;14973;51.460;7.008;2022-08-21T05:06:56;18.20;99.90
27534;DHT22;14973;51.460;7.008;2022-08-21T05:09:22;18.80;99.90
27534;DHT22;14973;51.460;7.008;2022-08-21T05:11:48;19.50;99.90
27534;DHT22;14973;51.460;7.008;2022-08-21T05:14:15;19.90;99.90
27534;DHT22;14973;51.460;7.008;2022-08-21T05:16:41;19.90;99.90
27534;DHT22;14973;51.460;7.008;2022-08-21T05:19:07;19.60;99.90
27534;DHT22;14973;51.460;7.008;2022-08-21T05:21:33;19.80;99.90
27534;DHT22;14973;51.460;7.008;2022-08-21T05:23:59;19.70;99.90
27534;DHT22;14973;51.460;7.008;2022-08-21T05:26:24;19.60;99.90
27534;DHT22;14973;51.460;7.008;2022-08-21T05:28:50;19.50;99.90
27534;DHT22;14973;51.460;7.008;2022-08-21T05:31:17;19.20;99.90
27534;DHT22;14973;51.460;7.008;2022-08-21T05:33:43;19.10;99.90
27534;DHT22;14973;51.460;7.008;2022-08-21T05:36:08;19.20;99.90
27534;DHT22;14973;51.460;7.008;2022-08-21T05:38:34;19.40;99.90
27534;DHT22;14973;51.460;7.008;2022-08-21T05:40:59;19.80;99.90
27534;DHT22;14973;51.460;7.008;2022-08-21T05:43:25;20.60;99.90
27534;DHT22;14973;51.460;7.008;2022-08-21T05:45:50;22.10;99.90
27534;DHT22;14973;51.460;7.008;2022-08-21T05:48:17;23.50;99.90
27534;DHT22;14973;51.460;7.008;2022-08-21T05:50:43;24.80;99.90
27534;DHT22;14973;51.460;7.008;2022-08-21T05:53:09;25.90;99.90
27534;DHT22;14973;51.460;7.008;2022-08-21T05:55:35;26.70;99.90
27534;DHT22;14973;51.460;7.008;2022-08-21T05:58:01;27.40;99.90
27534;DHT22;14973;51.460;7.008;2022-08-21T06:00:27;27.80;99.90
27534;DHT22;14973;51.460;7.008;2022-08-21T06:02:52;28.30;99.90
27534;DHT22;14973;51.460;7.008;2022-08-21T06:05:18;28.70;99.30
27534;DHT22;14973;51.460;7.008;2022-08-21T06:07:43;29.50;98.60
27534;DHT22;14973;51.460;7.008;2022-08-21T06:10:09;30.60;96.60
27534;DHT22;14973;51.460;7.008;2022-08-21T06:12:35;31.50;94.50
27534;DHT22;14973;51.460;7.008;2022-08-21T06:15:00;32.30;92.70
27534;DHT22;14973;51.460;7.008;2022-08-21T06:17:26;32.40;92.20
27534;DHT22;14973;51.460;7.008;2022-08-21T06:19:52;32.90;91.00
27534;DHT22;14973;51.460;7.008;2022-08-21T06:22:18;32.50;91.00
27534;DHT22;14973;51.460;7.008;2022-08-21T06:24:43;32.90;89.90
27534;DHT22;14973;51.460;7.008;2022-08-21T06:27:09;31.70;91.10
27534;DHT22;14973;51.460;7.008;2022-08-21T06:29:34;31.70;90.90
27534;DHT22;14973;51.460;7.008;2022-08-21T06:32:00;32.20;90.60
27534;DHT22;14973;51.460;7.008;2022-08-21T06:34:26;32.10;90.40
27534;DHT22;14973;51.460;7.008;2022-08-21T06:36:51;32.60;90.40
27534;DHT22;14973;51.460;7.008;2022-08-21T06:39:17;33.30;88.20
27534;DHT22;14973;51.460;7.008;2022-08-21T06:41:42;33.60;87.20
27534;DHT22;14973;51.460;7.008;2022-08-21T06:44:08;34.30;85.80
27534;DHT22;14973;51.460;7.008;2022-08-21T06:46:34;34.90;84.00
27534;DHT22;14973;51.460;7.008;2022-08-21T06:48:59;35.00;83.50
27534;DHT22;14973;51.460;7.008;2022-08-21T06:51:25;35.30;82.00
27534;DHT22;14973;51.460;7.008;2022-08-21T06:53:51;35.80;81.00
27534;DHT22;14973;51.460;7.008;2022-08-21T06:56:17;36.00;80.00
27534;DHT22;14973;51.460;7.008;2022-08-21T06:58:43;36.70;78.50
27534;DHT22;14973;51.460;7.008;2022-08-21T07:01:08;36.80;78.00
27534;DHT22;14973;51.460;7.008;2022-08-21T07:03:35;36.50;77.60
27534;DHT22;14973;51.460;7.008;2022-08-21T07:06:01;36.30;77.80
27534;DHT22;14973;51.460;7.008;2022-08-21T07:08:27;36.90;75.80
27534;DHT22;14973;51.460;7.008;2022-08-21T07:10:53;37.20;76.80
27534;DHT22;14973;51.460;7.008;2022-08-21T07:13:19;38.20;74.10
27534;DHT22;14973;51.460;7.008;2022-08-21T07:15:45;37.80;73.10
27534;DHT22;14973;51.460;7.008;2022-08-21T07:18:11;38.00;73.00
27534;DHT22;14973;51.460;7.008;2022-08-21T07:20:37;38.00;72.50
27534;DHT22;14973;51.460;7.008;2022-08-21T07:23:06;38.40;71.50
27534;DHT22;14973;51.460;7.008;2022-08-21T07:25:32;37.90;71.60
27534;DHT22;14973;51.460;7.008;2022-08-21T07:27:57;38.10;71.60
27534;DHT22;14973;51.460;7.008;2022-08-21T07:30:23;38.20;71.00
27534;DHT22;14973;51.460;7.008;2022-08-21T07:32:49;38.30;70.70
27534;DHT22;14973;51.460;7.008;2022-08-21T07:35:15;38.30;70.30
27534;DHT22;14973;51.460;7.008;2022-08-21T07:37:40;37.50;71.60
27534;DHT22;14973;51.460;7.008;2022-08-21T07:40:06;37.20;70.90
27534;DHT22;14973;51.460;7.008;2022-08-21T07:42:32;36.60;72.50
27534;DHT22;14973;51.460;7.008;2022-08-21T07:44:57;37.00;71.50
27534;DHT22;14973;51.460;7.008;2022-08-21T07:47:23;37.10;72.00
27534;DHT22;14973;51.460;7.008;2022-08-21T07:49:48;37.70;71.50
27534;DHT22;14973;51.460;7.008;2022-08-21T07:52:14;38.10;70.90
27534;DHT22;14973;51.460;7.008;2022-08-21T07:54:39;39.30;69.20
27534;DHT22;14973;51.460;7.008;2022-08-21T07:57:05;40.10;67.80
27534;DHT22;14973;51.460;7.008;2022-08-21T07:59:30;39.60;67.70
27534;DHT22;14973;51.460;7.008;2022-08-21T08:01:56;38.90;67.30
27534;DHT22;14973;51.460;7.008;2022-08-21T08:04:22;39.10;67.20
27534;DHT22;14973;51.460;7.008;2022-08-21T08:06:47;39.00;67.20
27534;DHT22;14973;51.460;7.008;2022-08-21T08:09:13;38.50;66.90
27534;DHT22;14973;51.460;7.008;2022-08-21T08:11:38;37.90;68.30
27534;DHT22;14973;51.460;7.008;2022-08-21T08:14:06;38.10;67.40
27534;DHT22;14973;51.460;7.008;2022-08-21T08:16:31;37.30;66.90
27534;DHT22;14973;51.460;7.008;2022-08-21T08:18:57;37.50;67.50
27534;DHT22;14973;51.460;7.008;2022-08-21T08:21:23;37.30;67.60
27534;DHT22;14973;51.460;7.008;2022-08-21T08:23:48;37.60;66.70
27534;DHT22;14973;51.460;7.008;2022-08-21T08:26:14;38.10;65.70
27534;DHT22;14973;51.460;7.008;2022-08-21T08:28:41;38.10;66.00
27534;DHT22;14973;51.460;7.008;2022-08-21T08:31:06;38.90;64.70
27534;DHT22;14973;51.460;7.008;2022-08-21T08:33:32;39.30;63.80
27534;DHT22;14973;51.460;7.008;2022-08-21T08:35:57;39.50;63.50
27534;DHT22;14973;51.460;7.008;2022-08-21T08:38:23;38.70;64.60
27534;DHT22;14973;51.460;7.008;2022-08-21T08:40:55;39.40;63.40
27534;DHT22;14973;51.460;7.008;2022-08-21T08:43:25;38.90;64.00
27534;DHT22;14973;51.460;7.008;2022-08-21T08:45:52;39.00;63.70
27534;DHT22;14973;51.460;7.008;2022-08-21T08:48:30;39.50;63.10
27534;DHT22;14973;51.460;7.008;2022-08-21T08:50:57;40.70;61.40
27534;DHT22;14973;51.460;7.008;2022-08-21T08:53:30;40.70;61.20
27534;DHT22;14973;51.460;7.008;2022-08-21T08:55:57;40.40;60.50
27534;DHT22;14973;51.460;7.008;2022-08-21T08:58:24;38.60;63.40
27534;DHT22;14973;51.460;7.008;2022-08-21T09:00:51;38.60;63.00
27534;DHT22;14973;51.460;7.008;2022-08-21T09:03:16;37.80;64.60
27534;DHT22;14973;51.460;7.008;2022-08-21T09:05:45;37.70;64.60
27534;DHT22;14973;51.460;7.008;2022-08-21T09:13:29;37.00;65.80
27534;DHT22;14973;51.460;7.008;2022-08-21T09:21:13;36.30;66.40
27534;DHT22;14973;51.460;7.008;2022-08-21T09:26:17;36.50;65.60
27534;DHT22;14973;51.460;7.008;2022-08-21T09:28:43;36.90;65.10
27534;DHT22;14973;51.460;7.008;2022-08-21T09:33:50;34.60;68.30
27534;DHT22;14973;51.460;7.008;2022-08-21T09:36:55;35.40;67.40
27534;DHT22;14973;51.460;7.008;2022-08-21T09:39:21;36.30;66.60
27534;DHT22;14973;51.460;7.008;2022-08-21T09:41:49;36.70;66.10
27534;DHT22;14973;51.460;7.008;2022-08-21T09:44:24;36.80;65.20
27534;DHT22;14973;51.460;7.008;2022-08-21T09:46:50;36.90;65.00
27534;DHT22;14973;51.460;7.008;2022-08-21T09:49:25;36.10;65.30
27534;DHT22;14973;51.460;7.008;2022-08-21T09:51:51;35.70;66.60
27534;DHT22;14973;51.460;7.008;2022-08-21T09:54:18;35.80;65.60
27534;DHT22;14973;51.460;7.008;2022-08-21T09:56:54;35.10;67.00
27534;DHT22;14973;51.460;7.008;2022-08-21T09:59:38;34.10;69.20
27534;DHT22;14973;51.460;7.008;2022-08-21T10:02:24;33.10;70.70
27534;DHT22;14973;51.460;7.008;2022-08-21T10:04:52;32.10;72.40
27534;DHT22;14973;51.460;7.008;2022-08-21T10:07:19;31.30;74.80
27534;DHT22;14973;51.460;7.008;2022-08-21T10:09:45;30.70;76.10
27534;DHT22;14973;51.460;7.008;2022-08-21T10:17:11;29.90;77.30
27534;DHT22;14973;51.460;7.008;2022-08-21T10:19:41;29.60;78.50
27534;DHT22;14973;51.460;7.008;2022-08-21T10:24:40;29.20;79.50
27534;DHT22;14973;51.460;7.008;2022-08-21T10:40:07;29.10;79.00
27534;DHT22;14973;51.460;7.008;2022-08-21T10:47:30;28.50;79.70
27534;DHT22;14973;51.460;7.008;2022-08-21T10:54:57;27.90;81.30
27534;DHT22;14973;51.460;7.008;2022-08-21T10:59:57;28.10;81.60
27534;DHT22;14973;51.460;7.008;2022-08-21T11:03:01;28.10;82.70
27534;DHT22;14973;51.460;7.008;2022-08-21T11:05:18;27.90;83.10
27534;DHT22;14973;51.460;7.008;2022-08-21T11:07:49;28.20;82.50
27534;DHT22;14973;51.460;7.008;2022-08-21T11:10:21;28.20;82.10
27534;DHT22;14973;51.460;7.008;2022-08-21T11:12:50;28.00;82.70
27534;DHT22;14973;51.460;7.008;2022-08-21T11:20:46;28.10;82.90
27534;DHT22;14973;51.460;7.008;2022-08-21T11:25:40;28.20;83.30
27534;DHT22;14973;51.460;7.008;2022-08-21T11:28:11;28.20;83.00
27534;DHT22;14973;51.460;7.008;2022-08-21T11:31:13;28.20;83.40
27534;DHT22;14973;51.460;7.008;2022-08-21T11:33:34;28.20;83.10
27534;DHT22;14973;51.460;7.008;2022-08-21T11:36:25;28.10;83.40
27534;DHT22;14973;51.460;7.008;2022-08-21T11:39:16;27.90;83.90
27534;DHT22;14973;51.460;7.008;2022-08-21T11:47:12;28.60;82.60
27534;DHT22;14973;51.460;7.008;2022-08-21T11:54:35;28.40;82.50
27534;DHT22;14973;51.460;7.008;2022-08-21T11:57:06;28.50;82.40
27534;DHT22;14973;51.460;7.008;2022-08-21T11:59:38;28.70;81.90
27534;DHT22;14973;51.460;7.008;2022-08-21T12:02:06;29.00;82.10
27534;DHT22;14973;51.460;7.008;2022-08-21T12:04:43;29.10;81.30
27534;DHT22;14973;51.460;7.008;2022-08-21T12:07:13;29.50;80.80
27534;DHT22;14973;51.460;7.008;2022-08-21T12:09:39;29.50;80.50
27534;DHT22;14973;51.460;7.008;2022-08-21T12:14:50;29.20;79.80
27534;DHT22;14973;51.460;7.008;2022-08-21T12:17:20;28.70;80.30
27534;DHT22;14973;51.460;7.008;2022-08-21T12:19:56;28.40;81.50
27534;DHT22;14973;51.460;7.008;2022-08-21T12:22:21;28.40;81.90
27534;DHT22;14973;51.460;7.008;2022-08-21T12:24:50;28.10;83.10
27534;DHT22;14973;51.460;7.008;2022-08-21T12:29:46;28.00;83.60
27534;DHT22;14973;51.460;7.008;2022-08-21T12:34:42;28.10;83.50
27534;DHT22;14973;51.460;7.008;2022-08-21T12:39:43;28.20;83.20
27534;DHT22;14973;51.460;7.008;2022-08-21T12:45:33;27.30;84.00
27534;DHT22;14973;51.460;7.008;2022-08-21T12:47:59;27.50;84.50
27534;DHT22;14973;51.460;7.008;2022-08-21T12:50:29;27.40;85.90
27534;DHT22;14973;51.460;7.008;2022-08-21T12:55:28;27.70;83.50
27534;DHT22;14973;51.460;7.008;2022-08-21T12:57:54;28.00;84.10
27534;DHT22;14973;51.460;7.008;2022-08-21T13:00:21;28.10;83.60
27534;DHT22;14973;51.460;7.008;2022-08-21T13:02:48;28.40;83.70
27534;DHT22;14973;51.460;7.008;2022-08-21T13:05:16;28.50;82.30
27534;DHT22;14973;51.460;7.008;2022-08-21T13:07:44;28.60;80.80
27534;DHT22;14973;51.460;7.008;2022-08-21T13:10:29;28.50;80.30
27534;DHT22;14973;51.460;7.008;2022-08-21T13:12:58;28.20;81.40
27534;DHT22;14973;51.460;7.008;2022-08-21T13:15:31;27.80;82.90
27534;DHT22;14973;51.460;7.008;2022-08-21T13:17:58;27.80;82.40
27534;DHT22;14973;51.460;7.008;2022-08-21T13:20:29;27.90;82.70
27534;DHT22;14973;51.460;7.008;2022-08-21T13:22:55;27.80;82.50
27534;DHT22;14973;51.460;7.008;2022-08-21T13:25:21;28.00;82.20
27534;DHT22;14973;51.460;7.008;2022-08-21T13:28:00;28.10;82.20
27534;DHT22;14973;51.460;7.008;2022-08-21T13:30:26;27.90;82.80
27534;DHT22;14973;51.460;7.008;2022-08-21T13:32:56;27.80;82.90
27534;DHT22;14973;51.460;7.008;2022-08-21T13:35:24;27.80;82.60
27534;DHT22;14973;51.460;7.008;2022-08-21T13:37:50;27.90;82.30
27534;DHT22;14973;51.460;7.008;2022-08-21T13:40:24;28.10;81.60
27534;DHT22;14973;51.460;7.008;2022-08-21T13:42:50;28.30;81.20
27534;DHT22;14973;51.460;7.008;2022-08-21T13:45:23;28.30;81.20
27534;DHT22;14973;51.460;7.008;2022-08-21T13:47:49;28.00;81.10
27534;DHT22;14973;51.460;7.008;2022-08-21T13:50:16;27.90;80.80
27534;DHT22;14973;51.460;7.008;2022-08-21T13:53:19;27.80;81.00
27534;DHT22;14973;51.460;7.008;2022-08-21T13:55:41;28.00;81.00
27534;DHT22;14973;51.460;7.008;2022-08-21T13:58:07;28.20;81.30
27534;DHT22;14973;51.460;7.008;2022-08-21T14:00:35;28.20;81.50
27534;DHT22;14973;51.460;7.008;2022-08-21T14:03:08;28.30;81.90
27534;DHT22;14973;51.460;7.008;2022-08-21T14:05:43;28.50;81.40
27534;DHT22;14973;51.460;7.008;2022-08-21T14:08:18;28.30;80.50
27534;DHT22;14973;51.460;7.008;2022-08-21T14:10:48;28.50;78.90
27534;DHT22;14973;51.460;7.008;2022-08-21T14:13:29;28.30;79.60
27534;DHT22;14973;51.460;7.008;2022-08-21T14:15:59;28.10;80.80
27534;DHT22;14973;51.460;7.008;2022-08-21T14:18:25;28.20;80.70
27534;DHT22;14973;51.460;7.008;2022-08-21T14:20:52;28.40;80.00
27534;DHT22;14973;51.460;7.008;2022-08-21T14:23:28;28.20;81.00
27534;DHT22;14973;51.460;7.008;2022-08-21T14:25:53;28.10;81.30
27534;DHT22;14973;51.460;7.008;2022-08-21T14:28:24;27.90;82.00
27534;DHT22;14973;51.460;7.008;2022-08-21T14:30:52;27.80;83.30
27534;DHT22;14973;51.460;7.008;2022-08-21T14:33:20;27.80;82.90
27534;DHT22;14973;51.460;7.008;2022-08-21T14:35:48;27.90;83.20
27534;DHT22;14973;51.460;7.008;2022-08-21T14:38:17;27.90;83.00
27534;DHT22;14973;51.460;7.008;2022-08-21T14:40:43;28.00;82.20
27534;DHT22;14973;51.460;7.008;2022-08-21T14:43:10;27.80;82.10
27534;DHT22;14973;51.460;7.008;2022-08-21T14:45:35;27.90;81.60
27534;DHT22;14973;51.460;7.008;2022-08-21T14:48:03;27.70;82.10
27534;DHT22;14973;51.460;7.008;2022-08-21T14:50:29;27.70;82.20
27534;DHT22;14973;51.460;7.008;2022-08-21T14:52:55;27.70;82.40
27534;DHT22;14973;51.460;7.008;2022-08-21T14:55:21;27.90;82.20
27534;DHT22;14973;51.460;7.008;2022-08-21T14:57:47;27.90;81.00
27534;DHT22;14973;51.460;7.008;2022-08-21T15:00:14;28.20;80.40
27534;DHT22;14973;51.460;7.008;2022-08-21T15:02:42;28.50;81.40
27534;DHT22;14973;51.460;7.008;2022-08-21T15:05:08;28.60;80.40
27534;DHT22;14973;51.460;7.008;2022-08-21T15:07:33;28.90;80.30
27534;DHT22;14973;51.460;7.008;2022-08-21T15:09:59;28.90;81.20
27534;DHT22;14973;51.460;7.008;2022-08-21T15:12:24;29.10;81.20
27534;DHT22;14973;51.460;7.008;2022-08-21T15:14:50;29.20;80.40
27534;DHT22;14973;51.460;7.008;2022-08-21T15:17:16;29.40;79.10
27534;DHT22;14973;51.460;7.008;2022-08-21T15:19:42;29.40;78.30
27534;DHT22;14973;51.460;7.008;2022-08-21T15:22:07;29.20;78.30
27534;DHT22;14973;51.460;7.008;2022-08-21T15:24:33;29.60;78.00
27534;DHT22;14973;51.460;7.008;2022-08-21T15:26:59;30.00;77.40
27534;DHT22;14973;51.460;7.008;2022-08-21T15:29:25;30.40;76.20
27534;DHT22;14973;51.460;7.008;2022-08-21T15:31:55;30.50;75.90
27534;DHT22;14973;51.460;7.008;2022-08-21T15:34:22;30.50;75.30
27534;DHT22;14973;51.460;7.008;2022-08-21T15:36:47;30.30;74.40
27534;DHT22;14973;51.460;7.008;2022-08-21T15:39:13;30.20;75.10
27534;DHT22;14973;51.460;7.008;2022-08-21T15:41:39;29.90;76.70
27534;DHT22;14973;51.460;7.008;2022-08-21T15:44:04;29.50;78.30
27534;DHT22;14973;51.460;7.008;2022-08-21T15:46:30;29.40;79.50
27534;DHT22;14973;51.460;7.008;2022-08-21T15:48:56;29.40;79.50
27534;DHT22;14973;51.460;7.008;2022-08-21T15:51:21;29.40;79.90
27534;DHT22;14973;51.460;7.008;2022-08-21T15:53:47;29.30;80.10
27534;DHT22;14973;51.460;7.008;2022-08-21T15:58:41;29.10;79.30
27534;DHT22;14973;51.460;7.008;2022-08-21T16:01:06;28.50;80.20
27534;DHT22;14973;51.460;7.008;2022-08-21T16:03:32;28.30;81.00
27534;DHT22;14973;51.460;7.008;2022-08-21T16:05:58;28.30;81.40
27534;DHT22;14973;51.460;7.008;2022-08-21T16:08:24;28.00;81.40
27534;DHT22;14973;51.460;7.008;2022-08-21T16:10:51;28.10;81.60
27534;DHT22;14973;51.460;7.008;2022-08-21T16:13:20;28.00;82.60
27534;DHT22;14973;51.460;7.008;2022-08-21T16:15:47;28.00;83.00
27534;DHT22;14973;51.460;7.008;2022-08-21T16:18:13;27.80;83.20
27534;DHT22;14973;51.460;7.008;2022-08-21T16:20:39;27.70;83.10
27534;DHT22;14973;51.460;7.008;2022-08-21T16:23:04;27.70;83.40
27534;DHT22;14973;51.460;7.008;2022-08-21T16:25:30;27.70;83.20
27534;DHT22;14973;51.460;7.008;2022-08-21T16:27:57;27.60;83.30
27534;DHT22;14973;51.460;7.008;2022-08-21T16:30:23;27.60;82.80
27534;DHT22;14973;51.460;7.008;2022-08-21T16:32:48;27.40;83.10
27534;DHT22;14973;51.460;7.008;2022-08-21T16:35:16;27.10;83.90
27534;DHT22;14973;51.460;7.008;2022-08-21T16:37:43;26.80;84.20
27534;DHT22;14973;51.460;7.008;2022-08-21T16:40:09;26.70;84.50
27534;DHT22;14973;51.460;7.008;2022-08-21T16:42:34;26.50;85.00
27534;DHT22;14973;51.460;7.008;2022-08-21T16:45:01;26.40;85.20
27534;DHT22;14973;51.460;7.008;2022-08-21T16:47:28;26.30;85.80
27534;DHT22;14973;51.460;7.008;2022-08-21T16:49:56;26.10;86.20
27534;DHT22;14973;51.460;7.008;2022-08-21T16:52:21;26.00;86.50
27534;DHT22;14973;51.460;7.008;2022-08-21T16:54:47;25.80;87.10
27534;DHT22;14973;51.460;7.008;2022-08-21T16:57:12;25.70;87.60